Time;durP1;ratioP1;P1;durP2;ratioP2;P2;SDS_P1;SDS_P2;PMS_P1;PMS_P2;Temp;Humidity;BMP_temperature;BMP_pressure;BME280_temperature;BME280_humidity;BME280_pressure;Samples;Min_cycle;Max_cycle;Signal;HPM_P1;HPM_P2
2022/10/21 00:00:57;;;;;;;1.08;0.50;;;23.40;59.60;;;;;;6233694;28;21135;-61
2022/10/21 00:04:00;;;;;;;0.93;0.50;;;23.50;59.60;;;;;;6247447;28;20708;-61
2022/10/21 00:07:02;;;;;;;0.70;0.43;;;23.50;59.60;;;;;;6246179;28;20048;-61
2022/10/21 00:10:05;;;;;;;1.13;0.60;;;23.60;59.80;;;;;;6250495;28;20125;-61
2022/10/21 00:13:07;;;;;;;0.68;0.60;;;23.10;59.40;;;;;;6233679;28;20116;-59
2022/10/21 00:16:11;;;;;;;1.52;0.70;;;23.20;59.70;;;;;;6266214;28;20192;-62
2022/10/21 00:19:12;;;;;;;1.02;0.57;;;23.20;59.60;;;;;;6230127;28;20124;-61
2022/10/21 00:22:13;;;;;;;;;;;23.10;59.70;;;;;;6252282;28;20190;-61
2022/10/21 00:25:16;;;;;;;1.30;0.77;;;23.00;60.00;;;;;;6243708;28;19930;-62
2022/10/21 00:28:17;;;;;;;0.73;0.50;;;23.70;59.90;;;;;;6252429;28;20055;-60
2022/10/21 00:31:19;;;;;;;1.05;0.50;;;23.30;60.00;;;;;;6246602;28;20037;-59
2022/10/21 00:34:20;;;;;;;;;;;23.30;60.00;;;;;;6256873;28;20904;-61
2022/10/21 00:37:21;;;;;;;;;;;22.70;59.80;;;;;;6250960;28;19969;-61
2022/10/21 00:40:23;;;;;;;0.70;0.30;;;23.10;60.10;;;;;;6263885;28;20797;-62
2022/10/21 00:43:26;;;;;;;0.77;0.47;;;23.40;60.10;;;;;;6247874;28;20052;-62
2022/10/21 00:46:37;;;;;;;1.95;0.63;;;23.50;60.00;;;;;;6233153;28;20174;-61
2022/10/21 00:49:42;;;;;;;0.68;0.40;;;23.10;59.70;;;;;;6254232;28;20055;-61
2022/10/21 00:52:44;;;;;;;0.60;0.40;;;23.30;60.00;;;;;;6231919;28;20074;-61
2022/10/21 00:55:49;;;;;;;1.05;0.52;;;23.30;60.10;;;;;;6241295;28;20179;-60
2022/10/21 00:58:56;;;;;;;0.57;0.40;;;23.10;59.80;;;;;;6201005;28;20044;-62
2022/10/21 01:01:57;;;;;;;0.70;0.43;;;23.40;59.90;;;;;;6220382;28;20037;-61
2022/10/21 01:05:01;;;;;;;0.55;0.28;;;23.30;60.10;;;;;;6222467;28;20043;-61
2022/10/21 01:08:03;;;;;;;0.60;0.30;;;23.30;59.90;;;;;;6231202;28;20147;-62
2022/10/21 01:11:11;;;;;;;0.45;0.35;;;23.10;59.80;;;;;;6232963;28;20052;-61
2022/10/21 01:14:31;;;;;;;1.20;0.40;;;23.10;59.70;;;;;;6210657;28;20040;-61
2022/10/21 01:17:45;;;;;;;1.23;0.40;;;23.20;59.80;;;;;;6212080;28;20069;-59
2022/10/21 01:20:59;;;;;;;1.08;0.40;;;23.20;59.70;;;;;;6211155;28;20055;-61
2022/10/21 01:24:22;;;;;;;0.63;0.40;;;23.00;59.70;;;;;;6226614;28;20330;-62
2022/10/21 01:27:34;;;;;;;0.43;0.20;;;23.00;59.80;;;;;;6227704;28;20210;-62
2022/10/21 01:30:38;;;;;;;0.52;0.30;;;23.10;59.70;;;;;;6218464;28;20043;-61
2022/10/21 01:33:42;;;;;;;0.60;0.30;;;23.00;59.80;;;;;;6224667;28;20552;-60
2022/10/21 01:36:51;;;;;;;1.00;0.40;;;23.10;59.80;;;;;;6228740;28;20382;-62
2022/10/21 01:39:56;;;;;;;1.02;0.30;;;22.80;59.70;;;;;;6224232;28;20088;-61
2022/10/21 01:43:02;;;;;;;0.50;0.30;;;23.50;60.10;;;;;;6209735;28;20210;-58
2022/10/21 01:46:11;;;;;;;0.35;0.25;;;23.00;59.90;;;;;;6232045;28;20036;-59
2022/10/21 01:49:17;;;;;;;0.50;0.30;;;23.00;59.90;;;;;;6212509;28;20483;-60
2022/10/21 01:52:19;;;;;;;0.30;0.20;;;23.40;60.10;;;;;;6207596;28;20047;-59
2022/10/21 01:55:25;;;;;;;0.70;0.40;;;22.90;60.00;;;;;;6218342;28;20196;-60
2022/10/21 01:58:30;;;;;;;0.20;0.20;;;23.20;60.00;;;;;;6227564;28;20360;-57
2022/10/21 02:01:34;;;;;;;0.22;0.22;;;23.30;60.10;;;;;;6221917;28;20036;-60
2022/10/21 02:04:40;;;;;;;0.40;0.20;;;23.10;60.00;;;;;;6221930;28;20276;-59
2022/10/21 02:07:41;;;;;;;0.75;0.35;;;22.90;59.90;;;;;;6233339;28;20836;-61
2022/10/21 02:10:47;;;;;;;0.57;0.20;;;23.30;60.30;;;;;;6217052;28;20393;-61
2022/10/21 02:13:57;;;;;;;0.50;0.30;;;22.90;60.00;;;;;;6203990;28;20471;-62
2022/10/21 02:17:00;;;;;;;0.38;0.30;;;23.10;60.00;;;;;;6223398;28;20325;-60
2022/10/21 02:20:05;;;;;;;0.30;0.20;;;22.90;59.90;;;;;;6195283;28;20363;-58
2022/10/21 02:23:10;;;;;;;0.20;0.20;;;23.00;59.90;;;;;;6228434;28;21418;-58
2022/10/21 02:26:12;;;;;;;0.38;0.20;;;23.00;60.00;;;;;;6236207;28;20087;-63
2022/10/21 02:29:14;;;;;;;0.95;0.47;;;23.70;60.60;;;;;;6224165;28;20633;-57
2022/10/21 02:32:26;;;;;;;0.57;0.30;;;23.20;60.10;;;;;;6231528;28;20644;-61
2022/10/21 02:35:38;;;;;;;0.22;0.22;;;23.00;60.10;;;;;;6228720;28;20099;-62
2022/10/21 02:38:41;;;;;;;;;;;23.10;60.30;;;;;;6237669;28;20044;-57
2022/10/21 02:41:45;;;;;;;0.80;0.32;;;23.00;60.50;;;;;;6220915;28;20755;-58
2022/10/21 02:44:51;;;;;;;0.20;0.20;;;23.20;60.40;;;;;;6229491;28;20073;-61
2022/10/21 02:47:54;;;;;;;0.63;0.30;;;23.50;60.70;;;;;;6226027;28;20300;-59
2022/10/21 02:50:55;;;;;;;0.43;0.20;;;23.20;60.60;;;;;;6223457;28;20502;-62
2022/10/21 02:53:56;;;;;;;;;;;23.10;60.70;;;;;;6214168;28;20051;-62
2022/10/21 02:56:58;;;;;;;0.28;0.20;;;23.20;60.90;;;;;;6224354;28;19925;-57
2022/10/21 02:59:59;;;;;;;;;;;23.20;60.90;;;;;;6229426;28;20426;-57
2022/10/21 03:03:01;;;;;;;0.30;0.20;;;23.30;61.20;;;;;;6219540;28;20023;-57
2022/10/21 03:06:03;;;;;;;0.40;0.40;;;23.20;60.90;;;;;;6232989;28;20221;-58
2022/10/21 03:09:04;;;;;;;0.45;0.30;;;23.10;60.90;;;;;;6234944;28;20055;-60
2022/10/21 03:12:06;;;;;;;0.20;0.13;;;23.30;61.00;;;;;;6223539;28;20055;-59
2022/10/21 03:15:08;;;;;;;;;;;23.00;60.90;;;;;;6239110;28;20036;-59
2022/10/21 03:18:10;;;;;;;0.45;0.30;;;23.10;60.10;;;;;;6222398;28;19932;-60
2022/10/21 03:21:12;;;;;;;0.55;0.30;;;23.10;60.90;;;;;;6232897;28;20032;-60
2022/10/21 03:24:13;;;;;;;;;;;23.10;60.90;;;;;;6237828;28;20036;-57
2022/10/21 03:27:28;;;;;;;0.35;0.20;;;23.20;61.00;;;;;;6227018;28;20354;-61
2022/10/21 03:30:30;;;;;;;0.28;0.20;;;23.20;61.00;;;;;;6236377;28;20299;-57
2022/10/21 03:33:32;;;;;;;;;;;23.20;60.80;;;;;;6215875;28;20459;-59
2022/10/21 03:36:33;;;;;;;0.50;0.30;;;23.50;61.20;;;;;;6226014;28;20112;-63
2022/10/21 03:39:34;;;;;;;;;;;22.80;60.60;;;;;;6225367;28;20108;-63
2022/10/21 03:42:36;;;;;;;0.32;0.20;;;22.80;60.80;;;;;;6215311;28;19928;-60
2022/10/21 03:45:41;;;;;;;0.38;0.25;;;23.00;60.70;;;;;;6218288;28;20049;-58
2022/10/21 03:48:43;;;;;;;0.57;0.20;;;23.00;60.60;;;;;;6228096;28;20320;-60
2022/10/21 03:51:44;;;;;;;0.30;0.20;;;23.00;60.40;;;;;;6206524;28;20475;-59
2022/10/21 03:54:46;;;;;;;;;;;23.10;60.50;;;;;;6227732;28;20047;-58
2022/10/21 03:57:47;;;;;;;0.35;0.17;;;22.90;60.50;;;;;;6222908;28;20023;-62
2022/10/21 04:00:51;;;;;;;0.38;0.22;;;22.90;60.30;;;;;;6224963;28;20049;-62
2022/10/21 04:03:53;;;;;;;0.13;0.10;;;22.80;60.00;;;;;;6210161;28;20147;-61
2022/10/21 04:06:54;;;;;;;0.65;0.20;;;22.80;60.00;;;;;;6231245;28;20044;-61
2022/10/21 04:09:56;;;;;;;;;;;23.10;60.20;;;;;;6224317;28;20040;-58
2022/10/21 04:12:57;;;;;;;0.30;0.10;;;23.20;60.40;;;;;;6219235;28;19967;-60
2022/10/21 04:15:59;;;;;;;;;;;23.10;60.10;;;;;;6217853;28;20068;-61
2022/10/21 04:19:01;;;;;;;0.30;0.20;;;23.20;60.30;;;;;;6230747;28;20031;-60
2022/10/21 04:22:03;;;;;;;0.77;0.28;;;23.30;60.10;;;;;;6225041;28;20462;-62
2022/10/21 04:25:05;;;;;;;0.30;0.30;;;22.80;59.90;;;;;;6228103;28;20041;-58
2022/10/21 04:28:07;;;;;;;0.28;0.17;;;23.20;59.90;;;;;;6210751;28;20260;-58
2022/10/21 04:31:08;;;;;;;;;;;23.00;59.90;;;;;;6211007;28;20062;-62
2022/10/21 04:34:10;;;;;;;0.20;0.20;;;22.60;60.00;;;;;;6233519;28;19975;-60
2022/10/21 04:37:12;;;;;;;0.40;0.30;;;23.20;59.90;;;;;;6226954;28;20143;-59
2022/10/21 04:40:13;;;;;;;;;;;23.50;60.10;;;;;;6228649;28;20076;-60
2022/10/21 04:43:15;;;;;;;0.60;0.10;;;22.70;59.80;;;;;;6200202;28;19928;-61
2022/10/21 04:46:16;;;;;;;;;;;23.00;59.80;;;;;;6217506;28;20105;-63
2022/10/21 04:49:18;;;;;;;0.43;0.10;;;23.20;60.00;;;;;;6236305;28;19993;-60
2022/10/21 04:52:20;;;;;;;0.77;0.30;;;23.10;59.60;;;;;;6214064;28;20596;-62
2022/10/21 04:55:21;;;;;;;;;;;23.00;59.60;;;;;;6218639;28;20041;-59
2022/10/21 04:58:22;;;;;;;0.70;0.20;;;22.60;59.70;;;;;;6226133;28;20070;-60
2022/10/21 05:01:24;;;;;;;0.35;0.20;;;23.00;59.60;;;;;;6206225;28;20210;-58
2022/10/21 05:04:26;;;;;;;0.43;0.20;;;22.50;59.40;;;;;;6210765;28;20048;-58
2022/10/21 05:07:28;;;;;;;0.45;0.20;;;22.80;59.30;;;;;;6212222;28;20497;-60
2022/10/21 05:10:29;;;;;;;;;;;23.00;59.50;;;;;;6221410;28;20040;-61
2022/10/21 05:13:32;;;;;;;0.20;0.20;;;23.10;59.90;;;;;;6222895;28;19963;-59
2022/10/21 05:16:37;;;;;;;0.57;0.20;;;23.00;59.50;;;;;;6226058;28;20040;-61
2022/10/21 05:19:39;;;;;;;0.52;0.28;;;22.90;59.30;;;;;;6200975;28;20998;-61
2022/10/21 05:22:40;;;;;;;0.68;0.30;;;22.80;59.40;;;;;;6223499;28;21533;-62
2022/10/21 05:25:43;;;;;;;0.30;0.28;;;22.70;59.50;;;;;;6232774;28;20177;-60
2022/10/21 05:28:44;;;;;;;0.47;0.30;;;22.90;59.60;;;;;;6229224;28;21002;-60
2022/10/21 05:31:46;;;;;;;;;;;23.00;59.80;;;;;;6221423;28;20079;-61
2022/10/21 05:34:51;;;;;;;0.45;0.10;;;22.80;59.90;;;;;;6220950;28;20054;-61
2022/10/21 05:37:52;;;;;;;0.60;0.20;;;22.40;59.50;;;;;;6225764;28;20849;-60
2022/10/21 05:40:54;;;;;;;;;;;23.00;60.50;;;;;;6205685;28;20848;-63
2022/10/21 05:43:55;;;;;;;0.65;0.20;;;23.10;60.00;;;;;;6219201;28;20035;-61
2022/10/21 05:46:57;;;;;;;;;;;22.80;59.80;;;;;;6220232;28;20126;-61
2022/10/21 05:49:59;;;;;;;0.13;0.10;;;22.60;59.80;;;;;;6218874;28;19932;-60
2022/10/21 05:53:00;;;;;;;0.50;0.20;;;22.90;59.90;;;;;;6208911;28;20041;-60
2022/10/21 05:56:04;;;;;;;0.30;0.30;;;22.80;60.00;;;;;;6219128;28;20778;-60
2022/10/21 05:59:06;;;;;;;0.40;0.25;;;23.00;59.90;;;;;;6183630;28;20055;-60
2022/10/21 06:02:11;;;;;;;0.40;0.25;;;22.90;60.00;;;;;;6201708;28;20101;-60
2022/10/21 06:05:13;;;;;;;0.20;0.20;;;22.60;59.70;;;;;;6195134;28;20052;-61
2022/10/21 06:08:15;;;;;;;0.40;0.20;;;22.70;59.70;;;;;;6207721;28;20060;-59
2022/10/21 06:11:18;;;;;;;0.70;0.32;;;23.00;59.80;;;;;;6188930;28;21524;-60
2022/10/21 06:14:20;;;;;;;0.50;0.20;;;23.00;59.70;;;;;;6154654;28;20037;-61
2022/10/21 06:17:22;;;;;;;0.60;0.10;;;23.10;59.60;;;;;;6195487;28;20044;-58
2022/10/21 06:20:24;;;;;;;0.50;0.40;;;23.00;59.80;;;;;;6178158;28;20155;-60
2022/10/21 06:23:25;;;;;;;0.43;0.20;;;23.10;59.80;;;;;;6196245;28;20055;-58
2022/10/21 06:26:27;;;;;;;0.47;0.20;;;22.90;59.60;;;;;;6179850;28;21201;-60
2022/10/21 06:29:30;;;;;;;0.75;0.28;;;23.10;59.70;;;;;;6192496;28;20066;-59
2022/10/21 06:32:31;;;;;;;;;;;23.20;59.80;;;;;;6187773;28;20102;-60
2022/10/21 06:35:33;;;;;;;;;;;22.70;59.50;;;;;;6194562;28;19924;-60
2022/10/21 06:38:36;;;;;;;0.10;0.10;;;22.80;59.60;;;;;;6160761;28;19929;-61
2022/10/21 06:41:38;;;;;;;0.28;0.28;;;23.20;59.70;;;;;;6162819;28;21033;-59
2022/10/21 06:44:39;;;;;;;0.22;0.10;;;23.10;59.80;;;;;;6166587;28;21436;-58
2022/10/21 06:47:41;;;;;;;1.27;0.30;;;22.60;59.40;;;;;;6159538;28;20062;-60
2022/10/21 06:50:44;;;;;;;0.65;0.20;;;22.60;59.50;;;;;;6142179;28;20142;-60
2022/10/21 06:53:46;;;;;;;0.80;0.30;;;23.00;59.50;;;;;;6133195;28;20049;-58
2022/10/21 06:56:48;;;;;;;0.63;0.20;;;23.10;59.60;;;;;;6079217;28;20205;-60
2022/10/21 06:59:49;;;;;;;0.45;0.20;;;23.10;59.60;;;;;;6086465;28;20048;-60
2022/10/21 07:02:50;;;;;;;0.40;0.20;;;22.80;60.10;;;;;;6068239;28;20045;-59
2022/10/21 07:06:00;;;;;;;;;;;23.40;59.80;;;;;;6089450;28;20060;-59
2022/10/21 07:09:03;;;;;;;0.77;0.28;;;23.10;59.80;;;;;;6068141;28;19928;-55
2022/10/21 07:12:04;;;;;;;0.70;0.40;;;22.50;59.40;;;;;;6077846;28;20806;-59
2022/10/21 07:15:07;;;;;;;0.93;0.47;;;23.10;59.70;;;;;;6063437;28;20067;-55
2022/10/21 07:18:08;;;;;;;0.30;0.20;;;23.30;59.70;;;;;;6032155;28;20134;-57
2022/10/21 07:21:14;;;;;;;0.15;0.15;;;22.80;59.70;;;;;;6074239;28;20134;-59
2022/10/21 07:24:16;;;;;;;0.20;0.13;;;23.20;59.80;;;;;;6078506;28;20048;-57
2022/10/21 07:27:23;;;;;;;1.55;0.30;;;22.80;59.80;;;;;;6103571;28;20041;-57
2022/10/21 07:30:25;;;;;;;;;;;23.30;60.00;;;;;;6097840;28;20041;-58
2022/10/21 07:33:26;;;;;;;0.75;0.20;;;23.30;60.10;;;;;;6064004;28;19928;-58
2022/10/21 07:36:31;;;;;;;0.85;0.30;;;23.20;59.40;;;;;;6065446;28;20033;-56
2022/10/21 07:39:33;;;;;;;1.40;0.50;;;22.90;59.60;;;;;;6077538;28;20045;-57
2022/10/21 07:42:35;;;;;;;1.13;0.50;;;23.10;59.60;;;;;;6096054;28;20070;-55
2022/10/21 07:45:41;;;;;;;0.43;0.20;;;23.00;59.80;;;;;;6075933;28;20159;-57
2022/10/21 07:48:42;;;;;;;1.30;0.50;;;23.20;59.30;;;;;;6087319;28;21183;-60
2022/10/21 07:51:45;;;;;;;0.90;0.30;;;23.40;59.90;;;;;;6052831;28;20151;-58
2022/10/21 07:54:47;;;;;;;1.00;0.45;;;23.10;59.60;;;;;;6051613;28;20122;-59
2022/10/21 07:57:48;;;;;;;1.90;0.52;;;23.30;59.80;;;;;;6043855;28;20045;-56
2022/10/21 08:00:50;;;;;;;;;;;23.20;59.60;;;;;;6050939;28;20062;-53
2022/10/21 08:03:54;;;;;;;1.80;0.65;;;23.30;59.90;;;;;;6059751;28;21877;-56
2022/10/21 08:06:57;;;;;;;3.13;0.80;;;22.70;59.30;;;;;;6002409;28;20044;-58
2022/10/21 08:09:58;;;;;;;2.33;0.40;;;23.30;59.90;;;;;;6064146;28;20052;-57
2022/10/21 08:13:00;;;;;;;2.10;0.57;;;23.30;59.50;;;;;;6056445;28;20045;-55
2022/10/21 08:16:04;;;;;;;2.50;0.70;;;23.00;59.40;;;;;;6048605;28;20159;-55
2022/10/21 08:19:07;;;;;;;1.98;0.60;;;23.00;59.20;;;;;;6056930;28;20091;-60
2022/10/21 08:22:09;;;;;;;1.10;0.40;;;22.80;59.00;;;;;;6034487;28;20451;-60
2022/10/21 08:25:15;;;;;;;2.00;0.88;;;23.20;59.20;;;;;;6040022;28;20040;-59
2022/10/21 08:28:18;;;;;;;2.50;0.68;;;23.50;59.50;;;;;;6015534;28;20049;-60
2022/10/21 08:31:21;;;;;;;2.38;0.70;;;23.30;59.10;;;;;;6033548;28;20056;-61
2022/10/21 08:34:23;;;;;;;2.38;0.55;;;22.90;59.00;;;;;;5957214;28;20209;-62
2022/10/21 08:37:28;;;;;;;0.98;0.50;;;23.10;59.00;;;;;;6026639;28;20059;-59
2022/10/21 08:40:36;;;;;;;1.50;0.50;;;22.80;59.20;;;;;;6001307;28;20065;-57
2022/10/21 08:43:38;;;;;;;1.42;0.73;;;23.50;59.00;;;;;;6043871;28;21522;-56
2022/10/21 08:46:44;;;;;;;1.27;0.65;;;23.40;59.10;;;;;;6043862;28;20871;-62
2022/10/21 08:49:55;;;;;;;2.15;0.80;;;23.20;58.90;;;;;;6042282;28;20052;-59
2022/10/21 08:52:59;;;;;;;;;;;23.10;58.70;;;;;;6029251;28;20041;-61
2022/10/21 08:56:05;;;;;;;2.60;0.80;;;23.40;58.70;;;;;;6037452;28;20541;-61
2022/10/21 08:59:18;;;;;;;2.60;0.95;;;23.10;58.70;;;;;;6004296;28;20060;-60
2022/10/21 09:02:34;;;;;;;1.15;0.50;;;23.00;58.70;;;;;;6058308;28;20048;-61
2022/10/21 09:05:53;;;;;;;1.85;0.90;;;22.90;59.10;;;;;;6003648;28;20048;-61
2022/10/21 09:09:00;;;;;;;2.17;0.90;;;23.50;59.40;;;;;;6046478;28;20135;-59
2022/10/21 09:12:12;;;;;;;1.30;0.70;;;23.50;59.50;;;;;;6047294;28;20121;-61
2022/10/21 09:15:18;;;;;;;;;;;23.50;58.80;;;;;;6036354;28;20633;-62
2022/10/21 09:18:34;;;;;;;1.88;0.75;;;23.50;59.00;;;;;;6062078;28;20033;-59
2022/10/21 09:21:52;;;;;;;2.58;0.40;;;23.20;58.60;;;;;;6049719;28;20055;-62
2022/10/21 09:24:59;;;;;;;1.70;0.70;;;23.40;58.70;;;;;;6059811;28;22606;-60
2022/10/21 09:28:10;;;;;;;1.42;0.60;;;23.00;58.40;;;;;;6063889;28;20045;-60
2022/10/21 09:31:16;;;;;;;2.15;1.02;;;23.10;58.10;;;;;;6042958;28;22507;-60
2022/10/21 09:34:28;;;;;;;1.75;1.13;;;23.30;58.40;;;;;;6057969;28;20037;-60
2022/10/21 09:37:33;;;;;;;1.48;0.70;;;23.60;58.20;;;;;;6065859;28;20134;-61
2022/10/21 09:40:39;;;;;;;2.80;0.98;;;23.20;58.10;;;;;;6057114;28;20041;-61
2022/10/21 09:43:40;;;;;;;3.55;0.82;;;23.50;58.30;;;;;;6056281;28;20052;-57
2022/10/21 09:46:44;;;;;;;1.83;0.60;;;23.10;57.40;;;;;;6077540;28;20152;-61
2022/10/21 09:49:48;;;;;;;1.92;0.85;;;23.60;58.30;;;;;;6045953;28;20103;-60
2022/10/21 09:53:17;;;;;;;2.88;1.13;;;23.40;58.10;;;;;;6034747;28;20037;-61
2022/10/21 09:56:27;;;;;;;3.13;0.98;;;23.30;58.00;;;;;;6067156;28;20048;-60
2022/10/21 09:59:31;;;;;;;3.17;1.35;;;23.30;57.90;;;;;;6043425;28;20048;-59
2022/10/21 10:02:37;;;;;;;2.60;0.93;;;23.50;58.20;;;;;;6046427;28;22078;-57
2022/10/21 10:05:42;;;;;;;3.08;0.90;;;23.70;58.10;;;;;;6042447;28;21566;-57
2022/10/21 10:08:46;;;;;;;3.80;1.23;;;23.30;57.80;;;;;;5996477;28;21458;-57
2022/10/21 10:11:52;;;;;;;2.63;1.08;;;23.40;57.70;;;;;;6014447;28;20882;-59
2022/10/21 10:14:54;;;;;;;2.33;0.95;;;23.70;57.90;;;;;;6053246;28;20048;-60
2022/10/21 10:17:56;;;;;;;3.50;0.88;;;23.40;57.70;;;;;;6082100;28;20312;-60
2022/10/21 10:21:04;;;;;;;2.53;0.68;;;23.40;57.80;;;;;;6041720;28;21190;-58
2022/10/21 10:24:14;;;;;;;2.50;0.70;;;23.30;57.50;;;;;;6012181;28;20201;-54
2022/10/21 10:27:25;;;;;;;2.60;0.80;;;23.70;57.70;;;;;;6068339;28;20519;-58
2022/10/21 10:30:36;;;;;;;3.13;1.27;;;23.60;57.70;;;;;;6001745;28;20569;-58
2022/10/21 10:33:38;;;;;;;4.25;1.00;;;23.60;57.40;;;;;;6029393;28;20067;-58
2022/10/21 10:36:40;;;;;;;2.15;0.63;;;23.60;57.40;;;;;;6079814;28;20113;-55
2022/10/21 10:39:45;;;;;;;2.28;0.95;;;23.50;57.30;;;;;;6097606;28;21141;-57
2022/10/21 10:42:50;;;;;;;1.98;0.88;;;23.70;57.20;;;;;;6066632;28;20201;-55
2022/10/21 10:45:55;;;;;;;3.38;1.02;;;23.40;56.90;;;;;;6105040;28;20079;-53
2022/10/21 10:49:04;;;;;;;3.40;0.82;;;23.90;57.10;;;;;;6128005;28;20528;-56
2022/10/21 10:52:20;;;;;;;2.28;0.70;;;23.60;56.80;;;;;;6101750;28;21104;-58
2022/10/21 10:55:22;;;;;;;3.47;0.88;;;23.70;56.70;;;;;;6136905;28;20048;-58
2022/10/21 10:58:27;;;;;;;3.80;0.80;;;23.70;56.80;;;;;;6130652;28;20047;-60
2022/10/21 11:01:34;;;;;;;4.40;1.35;;;23.60;56.60;;;;;;5950516;28;20495;-57
2022/10/21 11:04:39;;;;;;;1.92;0.60;;;23.20;56.90;;;;;;5371534;28;20040;-59
2022/10/21 11:07:45;;;;;;;2.72;0.73;;;23.40;56.10;;;;;;5002605;28;20044;-56
2022/10/21 11:11:03;;;;;;;3.22;0.65;;;23.70;56.20;;;;;;5044302;28;21164;-56
2022/10/21 11:14:14;;;;;;;1.95;0.55;;;23.00;54.70;;;;;;5416057;28;20851;-59
2022/10/21 11:17:29;;;;;;;2.17;0.60;;;23.30;56.20;;;;;;5929053;28;22367;-59
2022/10/21 11:20:38;;;;;;;2.35;1.15;;;23.80;56.00;;;;;;6133722;28;20164;-59
2022/10/21 11:24:01;;;;;;;2.05;0.40;;;23.70;55.70;;;;;;6105855;28;20037;-59
2022/10/21 11:27:13;;;;;;;1.67;0.60;;;23.40;55.40;;;;;;6146946;28;20043;-59
2022/10/21 11:30:22;;;;;;;2.08;0.57;;;23.80;55.40;;;;;;6129717;28;21045;-59
2022/10/21 11:33:32;;;;;;;1.23;0.60;;;23.90;55.50;;;;;;6087300;28;20140;-59
2022/10/21 11:36:39;;;;;;;1.38;0.63;;;23.90;55.20;;;;;;6134897;28;20154;-59
2022/10/21 11:39:52;;;;;;;1.92;0.50;;;23.80;54.90;;;;;;6105659;28;20044;-58
2022/10/21 11:42:55;;;;;;;1.55;0.70;;;23.90;55.00;;;;;;6077332;28;20041;-59
2022/10/21 11:46:04;;;;;;;2.28;0.88;;;23.80;54.80;;;;;;6057238;28;20834;-59
2022/10/21 11:49:17;;;;;;;2.17;0.50;;;23.90;54.80;;;;;;6035163;22;20051;-60
2022/10/21 11:52:32;;;;;;;3.25;0.80;;;23.50;54.10;;;;;;6107387;22;20113;-60
2022/10/21 11:55:40;;;;;;;2.95;0.57;;;24.00;54.40;;;;;;6090513;28;20044;-60
2022/10/21 11:58:58;;;;;;;3.00;0.70;;;24.00;54.10;;;;;;6126206;28;20158;-60
2022/10/21 12:02:15;;;;;;;1.42;0.50;;;23.70;53.90;;;;;;6029031;28;20127;-59
2022/10/21 12:05:23;;;;;;;1.17;0.50;;;23.90;53.90;;;;;;6075601;28;20051;-59
2022/10/21 12:08:29;;;;;;;1.83;0.47;;;23.80;53.80;;;;;;6110670;28;22001;-60
2022/10/21 12:11:38;;;;;;;1.77;0.60;;;24.10;53.80;;;;;;6087597;28;20496;-59
2022/10/21 12:14:43;;;;;;;1.65;0.50;;;24.00;53.50;;;;;;6111108;28;20048;-59
2022/10/21 12:17:47;;;;;;;2.03;0.70;;;23.80;53.20;;;;;;6107931;28;21612;-59
2022/10/21 12:20:52;;;;;;;1.35;0.50;;;24.10;53.30;;;;;;6091775;28;20084;-61
2022/10/21 12:24:01;;;;;;;2.00;0.85;;;23.90;53.10;;;;;;6070644;28;20051;-62
2022/10/21 12:27:09;;;;;;;1.27;0.35;;;23.90;53.00;;;;;;6105242;28;21195;-62
2022/10/21 12:30:18;;;;;;;1.35;0.30;;;24.10;52.90;;;;;;6080743;28;20129;-60
2022/10/21 12:33:35;;;;;;;1.27;0.68;;;23.70;52.60;;;;;;6055923;28;20043;-61
2022/10/21 12:36:42;;;;;;;1.77;0.65;;;23.70;52.40;;;;;;5973464;28;20040;-61
2022/10/21 12:39:49;;;;;;;1.15;0.40;;;23.70;52.40;;;;;;5909170;28;20084;-60
2022/10/21 12:42:59;;;;;;;1.30;0.40;;;23.80;52.20;;;;;;6035624;28;20078;-60
2022/10/21 12:46:04;;;;;;;0.97;0.20;;;24.10;52.20;;;;;;6048153;28;20081;-60
2022/10/21 12:49:20;;;;;;;1.23;0.60;;;24.00;51.90;;;;;;6083121;22;20051;-59
2022/10/21 12:52:23;;;;;;;1.10;0.32;;;24.30;51.70;;;;;;6111167;28;20036;-61
2022/10/21 12:55:27;;;;;;;0.70;0.30;;;23.90;51.50;;;;;;6090667;28;20042;-61
2022/10/21 12:58:35;;;;;;;0.47;0.20;;;24.20;51.10;;;;;;6104703;28;20168;-61
2022/10/21 13:01:41;;;;;;;0.82;0.30;;;24.20;50.90;;;;;;6090024;28;20185;-61
2022/10/21 13:04:46;;;;;;;1.92;0.40;;;24.00;50.70;;;;;;6076069;28;20043;-61
2022/10/21 13:08:06;;;;;;;0.82;0.30;;;24.00;50.40;;;;;;6031959;28;20040;-57
2022/10/21 13:11:19;;;;;;;0.60;0.30;;;24.30;50.50;;;;;;6079103;28;20153;-57
2022/10/21 13:14:29;;;;;;;0.82;0.28;;;24.30;50.50;;;;;;6079515;28;20044;-57
2022/10/21 13:17:52;;;;;;;0.70;0.20;;;23.70;50.00;;;;;;6065550;28;20069;-59
2022/10/21 13:20:58;;;;;;;0.40;0.30;;;23.90;50.20;;;;;;6054282;28;20048;-60
2022/10/21 13:24:11;;;;;;;0.57;0.20;;;24.20;50.60;;;;;;6100209;28;20245;-58
2022/10/21 13:27:26;;;;;;;0.47;0.20;;;24.20;50.30;;;;;;6132048;28;20032;-60
2022/10/21 13:30:30;;;;;;;0.60;0.20;;;23.90;50.00;;;;;;6092297;28;20070;-59
2022/10/21 13:33:35;;;;;;;0.50;0.30;;;24.30;50.30;;;;;;6085559;28;20055;-60
2022/10/21 13:36:41;;;;;;;1.40;0.40;;;24.00;50.10;;;;;;6058116;28;20066;-60
2022/10/21 13:39:43;;;;;;;0.55;0.20;;;23.80;49.60;;;;;;6107388;28;20040;-60
2022/10/21 13:42:52;;;;;;;0.90;0.30;;;24.00;49.70;;;;;;6130938;28;20070;-60
2022/10/21 13:46:03;;;;;;;0.88;0.30;;;23.80;49.20;;;;;;6110640;28;20825;-59
2022/10/21 13:49:05;;;;;;;0.35;0.17;;;24.70;49.60;;;;;;6096495;28;20047;-60
2022/10/21 13:52:10;;;;;;;0.47;0.30;;;23.90;49.10;;;;;;6079017;28;20047;-60
2022/10/21 13:55:17;;;;;;;0.65;0.38;;;24.50;49.30;;;;;;6078567;28;20143;-61
2022/10/21 13:58:24;;;;;;;0.35;0.10;;;24.00;48.90;;;;;;6079403;28;20056;-55
2022/10/21 14:01:28;;;;;;;0.80;0.30;;;24.00;48.90;;;;;;6077331;28;22184;-56
2022/10/21 14:04:31;;;;;;;0.95;0.45;;;24.00;48.80;;;;;;6085514;28;20121;-56
2022/10/21 14:07:34;;;;;;;0.52;0.30;;;24.00;48.60;;;;;;6015527;28;20157;-56
2022/10/21 14:10:35;;;;;;;1.02;0.40;;;24.30;48.90;;;;;;6034016;28;20199;-56
2022/10/21 14:13:39;;;;;;;0.70;0.20;;;24.40;49.00;;;;;;5981888;28;20167;-56
2022/10/21 14:16:46;;;;;;;0.60;0.30;;;24.30;48.60;;;;;;6042688;28;20044;-55
2022/10/21 14:19:52;;;;;;;0.57;0.30;;;23.70;48.40;;;;;;6019535;28;20134;-56
2022/10/21 14:22:55;;;;;;;0.68;0.35;;;24.30;48.70;;;;;;6067318;28;20525;-54
2022/10/21 14:26:03;;;;;;;1.13;0.50;;;24.10;48.60;;;;;;6071516;28;20159;-54
2022/10/21 14:29:05;;;;;;;0.52;0.20;;;23.80;48.50;;;;;;6086132;28;20471;-57
2022/10/21 14:32:07;;;;;;;0.50;0.15;;;24.20;48.80;;;;;;6094660;22;20184;-55
2022/10/21 14:35:23;;;;;;;0.47;0.20;;;24.20;48.30;;;;;;6131380;28;20052;-56
2022/10/21 14:38:37;;;;;;;0.68;0.40;;;24.20;48.90;;;;;;6088894;28;20586;-55
2022/10/21 14:41:44;;;;;;;0.68;0.30;;;23.80;48.80;;;;;;6070832;28;20616;-54
2022/10/21 14:44:46;;;;;;;0.60;0.30;;;24.20;49.20;;;;;;6078964;28;20293;-55
2022/10/21 14:47:50;;;;;;;1.70;0.47;;;23.60;49.00;;;;;;6082820;28;21540;-55
2022/10/21 14:50:53;;;;;;;0.70;0.25;;;24.40;49.50;;;;;;6044222;28;23856;-52
2022/10/21 14:53:59;;;;;;;0.68;0.20;;;23.90;49.50;;;;;;6075131;28;20313;-56
2022/10/21 14:57:03;;;;;;;0.20;0.17;;;24.20;50.30;;;;;;6078068;28;20707;-55
2022/10/21 15:00:09;;;;;;;0.57;0.20;;;24.20;49.70;;;;;;6114674;28;20169;-54
2022/10/21 15:03:11;;;;;;;0.60;0.20;;;24.20;49.50;;;;;;6051609;28;20184;-55
2022/10/21 15:06:16;;;;;;;1.63;0.38;;;24.00;49.30;;;;;;6103777;28;20707;-52
2022/10/21 15:09:19;;;;;;;0.40;0.15;;;24.20;49.30;;;;;;6095556;28;20083;-53
2022/10/21 15:12:31;;;;;;;0.63;0.28;;;23.80;49.30;;;;;;6088931;28;20288;-52
2022/10/21 15:15:46;;;;;;;0.95;0.50;;;23.90;49.30;;;;;;6110138;28;21102;-51
2022/10/21 15:18:54;;;;;;;1.05;0.40;;;23.50;49.10;;;;;;6087601;28;20284;-53
2022/10/21 15:21:58;;;;;;;0.55;0.13;;;24.50;49.80;;;;;;6094801;28;20389;-53
2022/10/21 15:25:06;;;;;;;0.52;0.20;;;24.30;49.60;;;;;;6124553;28;20849;-50
2022/10/21 15:28:10;;;;;;;0.60;0.30;;;23.80;49.20;;;;;;6133105;28;20888;-50
2022/10/21 15:31:17;;;;;;;1.75;0.20;;;24.20;49.30;;;;;;6134343;28;20451;-51
2022/10/21 15:34:18;;;;;;;1.65;0.30;;;23.80;49.00;;;;;;6111132;28;20671;-52
2022/10/21 15:37:20;;;;;;;0.50;0.30;;;24.20;49.20;;;;;;6146450;28;20797;-54
2022/10/21 15:40:22;;;;;;;1.08;0.47;;;24.10;49.20;;;;;;6142677;28;20146;-50
2022/10/21 15:43:24;;;;;;;1.02;0.30;;;24.20;49.10;;;;;;6157890;28;20281;-51
2022/10/21 15:46:28;;;;;;;0.10;0.10;;;23.90;49.10;;;;;;6150310;28;20803;-60
2022/10/21 15:49:33;;;;;;;0.38;0.10;;;24.20;48.90;;;;;;6128260;28;20555;-58
2022/10/21 15:52:35;;;;;;;0.30;0.20;;;24.10;48.90;;;;;;6123931;28;20163;-59
2022/10/21 15:55:41;;;;;;;0.30;0.10;;;24.50;49.20;;;;;;6134658;28;20525;-58
2022/10/21 15:58:43;;;;;;;0.50;0.20;;;24.30;49.00;;;;;;6150909;28;20196;-57
2022/10/21 16:01:45;;;;;;;1.13;0.32;;;24.20;49.10;;;;;;6132750;28;21012;-58
2022/10/21 16:04:50;;;;;;;0.50;0.20;;;23.90;48.70;;;;;;6166864;28;20302;-60
2022/10/21 16:07:51;;;;;;;0.50;0.20;;;24.20;49.00;;;;;;6177140;28;20040;-57
2022/10/21 16:10:54;;;;;;;0.17;0.15;;;24.30;49.10;;;;;;6140112;28;20549;-59